ADDS METAR Data INFO
IDs: Format: Raw Decoded Include TAF

Data at: 1946 UTC 28 Apr 2017

METAR for:KSNS (Salinas Muni, CA, US)
Text:KSNS 281853Z 26008KT 10SM CLR 18/06 A3003 RMK AO2 SLP179 T01830056
Temperature: 18.3°C ( 65°F)
Dewpoint: 5.6°C ( 42°F) [RH = 43%]
Pressure (altimeter):30.03 inches Hg (1017.0 mb) [Sea level pressure: 1017.9 mb]
Winds:from the W (260 degrees) at 9 MPH (8 knots; 4.1 m/s)
Visibility:10 or more sm (16+ km)
Ceiling:at least 12,000 feet AGL
Clouds:sky clear below 12,000 feet AGL
Text:KSNS 281753Z 25010KT 10SM CLR 17/06 A3004 RMK AO2 SLP180 T01720056 10172 20100 58001
Temperature: 17.2°C ( 63°F)
Dewpoint: 5.6°C ( 42°F) [RH = 46%]
Pressure (altimeter):30.04 inches Hg (1017.4 mb) [Sea level pressure: 1018.0 mb]
Winds:from the WSW (250 degrees) at 12 MPH (10 knots; 5.1 m/s)
Visibility:10 or more sm (16+ km)
Ceiling:at least 12,000 feet AGL
Clouds:sky clear below 12,000 feet AGL
Text:KSNS 281653Z 28004KT 10SM CLR 16/08 A3005 RMK AO2 SLP184 T01560078
Temperature: 15.6°C ( 60°F)
Dewpoint: 7.8°C ( 46°F) [RH = 60%]
Pressure (altimeter):30.05 inches Hg (1017.7 mb) [Sea level pressure: 1018.4 mb]
Winds:from the W (280 degrees) at 5 MPH (4 knots; 2.1 m/s)
Visibility:10 or more sm (16+ km)
Ceiling:at least 12,000 feet AGL
Clouds:sky clear below 12,000 feet AGL
Text:KSNS 281553Z 27008KT 9SM CLR 14/08 A3005 RMK AO2 SLP184 T01390078
Temperature: 13.9°C ( 57°F)
Dewpoint: 7.8°C ( 46°F) [RH = 67%]
Pressure (altimeter):30.05 inches Hg (1017.7 mb) [Sea level pressure: 1018.4 mb]
Winds:from the W (270 degrees) at 9 MPH (8 knots; 4.1 m/s)
Visibility: 9 sm ( 14 km)
Ceiling:at least 12,000 feet AGL
Clouds:sky clear below 12,000 feet AGL
Text:KSNS 281453Z 32006KT 9SM CLR 12/07 A3004 RMK AO2 SLP181 T01170072 53013
Temperature: 11.7°C ( 53°F)
Dewpoint: 7.2°C ( 45°F) [RH = 74%]
Pressure (altimeter):30.04 inches Hg (1017.4 mb) [Sea level pressure: 1018.1 mb]
Winds:from the NW (320 degrees) at 7 MPH (6 knots; 3.1 m/s)
Visibility: 9 sm ( 14 km)
Ceiling:at least 12,000 feet AGL
Clouds:sky clear below 12,000 feet AGL
Text:KSNS 281353Z 31005KT 8SM CLR 10/07 A3002 RMK AO2 SLP175 T01000067
Temperature: 10.0°C ( 50°F)
Dewpoint: 6.7°C ( 44°F) [RH = 80%]
Pressure (altimeter):30.02 inches Hg (1016.7 mb) [Sea level pressure: 1017.5 mb]
Winds:from the NW (310 degrees) at 6 MPH (5 knots; 2.6 m/s)
Visibility: 8 sm ( 13 km)
Ceiling:at least 12,000 feet AGL
Clouds:sky clear below 12,000 feet AGL
Text:KSNS 281253Z 33004KT 10SM CLR 10/07 A3001 RMK AO2 SLP172 T01000067
Temperature: 10.0°C ( 50°F)
Dewpoint: 6.7°C ( 44°F) [RH = 80%]
Pressure (altimeter):30.01 inches Hg (1016.3 mb) [Sea level pressure: 1017.2 mb]
Winds:from the NNW (330 degrees) at 5 MPH (4 knots; 2.1 m/s)
Visibility:10 or more sm (16+ km)
Ceiling:at least 12,000 feet AGL
Clouds:sky clear below 12,000 feet AGL
Text:KSNS 281153Z AUTO 30006KT 10SM CLR 11/06 A3000 RMK AO2 SLP168 T01110061 10122 20106 56008
Temperature: 11.1°C ( 52°F)
Dewpoint: 6.1°C ( 43°F) [RH = 71%]
Pressure (altimeter):30.00 inches Hg (1016.0 mb) [Sea level pressure: 1016.8 mb]
Winds:from the WNW (300 degrees) at 7 MPH (6 knots; 3.1 m/s)
Visibility:10 or more sm (16+ km)
Ceiling:at least 12,000 feet AGL
Clouds:sky clear below 12,000 feet AGL
QC Flag:automated observation with no human augmentation
Text:KSNS 281053Z AUTO 22011KT 10SM CLR 11/06 A3001 RMK AO2 SLP171 T01110061
Temperature: 11.1°C ( 52°F)
Dewpoint: 6.1°C ( 43°F) [RH = 71%]
Pressure (altimeter):30.01 inches Hg (1016.3 mb) [Sea level pressure: 1017.1 mb]
Winds:from the SW (220 degrees) at 13 MPH (11 knots; 5.7 m/s)
Visibility:10 or more sm (16+ km)
Ceiling:at least 12,000 feet AGL
Clouds:sky clear below 12,000 feet AGL
QC Flag:automated observation with no human augmentation
Text:KSNS 280953Z AUTO 22010KT 10SM CLR 11/07 A3001 RMK AO2 SLP171 T01110072
Temperature: 11.1°C ( 52°F)
Dewpoint: 7.2°C ( 45°F) [RH = 77%]
Pressure (altimeter):30.01 inches Hg (1016.3 mb) [Sea level pressure: 1017.1 mb]
Winds:from the SW (220 degrees) at 12 MPH (10 knots; 5.1 m/s)
Visibility:10 or more sm (16+ km)
Ceiling:at least 12,000 feet AGL
Clouds:sky clear below 12,000 feet AGL
QC Flag:automated observation with no human augmentation
Text:KSNS 280853Z AUTO 23011KT 9SM CLR 12/07 A3002 RMK AO2 SLP176 T01170072 58004
Temperature: 11.7°C ( 53°F)
Dewpoint: 7.2°C ( 45°F) [RH = 74%]
Pressure (altimeter):30.02 inches Hg (1016.7 mb) [Sea level pressure: 1017.6 mb]
Winds:from the SW (230 degrees) at 13 MPH (11 knots; 5.7 m/s)
Visibility: 9 sm ( 14 km)
Ceiling:at least 12,000 feet AGL
Clouds:sky clear below 12,000 feet AGL
QC Flag:automated observation with no human augmentation
Text:KSNS 280753Z AUTO 21011KT 9SM CLR 12/07 A3004 RMK AO2 SLP181 T01170072 402000117
Temperature: 11.7°C ( 53°F)
Dewpoint: 7.2°C ( 45°F) [RH = 74%]
Pressure (altimeter):30.04 inches Hg (1017.4 mb) [Sea level pressure: 1018.1 mb]
Winds:from the SSW (210 degrees) at 13 MPH (11 knots; 5.7 m/s)
Visibility: 9 sm ( 14 km)
Ceiling:at least 12,000 feet AGL
Clouds:sky clear below 12,000 feet AGL
QC Flag:automated observation with no human augmentation


Page loaded:  19:46 UTC  |   12:46 PM Pacific  |   01:46 PM Mountain  |   02:46 PM Central  |   03:46 PM Eastern

 

ADVISORIES

FORECASTS

FORECASTS

OBSERVATIONS

USER TOOLS

ABOUT US